Time;durP1;ratioP1;P1;durP2;ratioP2;P2;SDS_P1;SDS_P2;PMS_P1;PMS_P2;Temp;Humidity;BMP_temperature;BMP_pressure;BME280_temperature;BME280_humidity;BME280_pressure;Samples;Min_cycle;Max_cycle;Signal;HPM_P1;HPM_P2
2021/12/17 08:51:33;;;;;;;1.35;1.20;;;;;;;2.83;100.00;102440.22;4968289;23;20147;-52
2021/12/17 08:54:37;;;;;;;2.22;1.92;;;;;;;2.81;100.00;102435.09;4936317;28;20055;-51
2021/12/17 08:57:41;;;;;;;1.33;1.33;;;;;;;2.83;100.00;102434.72;4938035;28;20465;-52
2021/12/17 09:00:46;;;;;;;8.40;1.10;;;;;;;2.88;100.00;102435.22;4947518;28;20059;-51
2021/12/17 09:03:49;;;;;;;4.55;2.58;;;;;;;2.87;100.00;102441.91;4945254;29;20054;-51
2021/12/17 09:06:52;;;;;;;4.45;2.17;;;;;;;2.89;100.00;102439.59;4940223;28;20074;-51
2021/12/17 09:09:56;;;;;;;2.42;1.67;;;;;;;2.91;100.00;102437.25;4934292;29;20443;-51
2021/12/17 09:12:59;;;;;;;1.58;1.42;;;;;;;2.92;100.00;102438.06;4945324;29;20415;-51
2021/12/17 09:16:07;;;;;;;6.32;2.28;;;;;;;2.93;100.00;102440.47;4936733;29;20098;-50
2021/12/17 09:19:11;;;;;;;2.95;1.95;;;;;;;3.03;100.00;102450.13;4948433;28;20070;-51
2021/12/17 09:22:14;;;;;;;5.55;2.47;;;;;;;3.07;100.00;102445.47;4945289;28;20115;-51
2021/12/17 09:25:17;;;;;;;0.75;0.75;;;;;;;3.12;100.00;102447.16;4934609;29;20128;-52
2021/12/17 09:28:21;;;;;;;3.97;1.58;;;;;;;3.17;100.00;102446.84;4937143;28;20063;-51
2021/12/17 09:31:24;;;;;;;2.05;1.13;;;;;;;3.17;100.00;102444.09;4948404;28;20104;-51
2021/12/17 09:34:27;;;;;;;5.15;1.20;;;;;;;3.12;100.00;102452.66;4934233;29;20057;-51
2021/12/17 09:37:30;;;;;;;8.35;1.40;;;;;;;3.19;100.00;102444.50;4940522;29;20199;-51
2021/12/17 09:40:33;;;;;;;2.92;0.98;;;;;;;3.17;100.00;102438.56;4934909;29;20106;-51
2021/12/17 09:43:37;;;;;;;1.20;1.13;;;;;;;3.17;100.00;102433.88;4934012;29;20098;-51
2021/12/17 09:46:42;;;;;;;2.83;1.48;;;;;;;3.21;100.00;102442.19;4941021;28;20110;-51
2021/12/17 09:49:45;;;;;;;0.98;0.98;;;;;;;3.34;100.00;102443.63;4934932;29;20054;-51
2021/12/17 09:52:48;;;;;;;2.97;1.75;;;;;;;3.49;100.00;102445.50;4944650;28;20207;-51
2021/12/17 09:55:51;;;;;;;1.45;1.20;;;;;;;3.61;100.00;102445.38;4934054;29;20059;-51
2021/12/17 09:58:54;;;;;;;12.32;4.72;;;;;;;3.74;100.00;102446.81;4944208;29;20138;-51
2021/12/17 10:01:58;;;;;;;3.83;1.50;;;;;;;3.87;100.00;102452.94;4934610;29;20091;-51
2021/12/17 10:05:01;;;;;;;8.75;1.58;;;;;;;3.90;100.00;102447.47;4934266;29;20107;-51
2021/12/17 10:08:10;;;;;;;3.00;1.63;;;;;;;3.92;100.00;102458.16;4952785;28;20058;-51
2021/12/17 10:11:16;;;;;;;2.13;1.85;;;;;;;3.90;100.00;102461.25;4933322;29;20057;-51
2021/12/17 10:14:24;;;;;;;5.82;2.75;;;;;;;3.89;100.00;102465.19;4933954;29;20093;-51
2021/12/17 10:17:28;;;;;;;5.70;1.38;;;;;;;3.92;100.00;102453.41;4942805;28;20091;-51
2021/12/17 16:51:59;;;;;;;9.15;2.05;;;;;;;8.71;100.00;102349.03;4954104;23;20121;-57
2021/12/17 16:55:06;;;;;;;3.65;1.67;;;;;;;8.74;100.00;102330.78;4946247;28;20054;-58
2021/12/17 16:58:09;;;;;;;9.88;2.67;;;;;;;8.67;100.00;102342.72;4944602;28;20062;-58
2021/12/17 17:01:12;;;;;;;7.78;1.30;;;;;;;8.64;100.00;102337.94;4935691;29;20062;-58
2021/12/17 17:04:15;;;;;;;3.60;1.65;;;;;;;8.77;100.00;102339.09;4941469;28;20054;-57
2021/12/17 17:07:18;;;;;;;5.55;0.93;;;;;;;8.84;100.00;102336.28;4946511;28;20095;-57
2021/12/17 17:10:22;;;;;;;1.40;1.23;;;;;;;8.95;100.00;102345.38;4935941;29;20106;-59
2021/12/17 17:13:26;;;;;;;19.80;1.33;;;;;;;9.02;100.00;102344.56;4935606;29;20099;-59
2021/12/17 17:16:29;;;;;;;3.83;0.95;;;;;;;9.05;100.00;102343.75;4940144;28;20070;-59
2021/12/17 17:19:36;;;;;;;1.10;0.93;;;;;;;9.05;100.00;102340.97;4934076;29;20106;-59
2021/12/17 17:22:39;;;;;;;13.15;1.75;;;;;;;9.00;100.00;102336.63;4934754;29;20136;-58
2021/12/17 17:25:42;;;;;;;3.47;1.10;;;;;;;9.01;100.00;102334.63;4935520;29;20054;-58
2021/12/17 17:28:46;;;;;;;4.68;2.05;;;;;;;8.96;100.00;102346.16;4934512;29;20115;-59
2021/12/17 17:31:49;;;;;;;3.00;1.52;;;;;;;8.99;100.00;102348.94;4940296;28;20178;-58
2021/12/17 17:34:54;;;;;;;4.63;1.45;;;;;;;8.94;100.00;102343.78;4951700;28;20050;-59
2021/12/17 17:37:57;;;;;;;12.10;1.52;;;;;;;8.82;100.00;102335.91;4945258;28;20102;-59
2021/12/17 17:41:00;;;;;;;1.98;1.38;;;;;;;8.75;100.00;102341.47;4934885;29;20396;-58
2021/12/17 17:44:03;;;;;;;3.92;0.93;;;;;;;8.74;100.00;102350.22;4935051;28;20060;-59
2021/12/17 17:47:07;;;;;;;7.45;1.20;;;;;;;8.79;100.00;102352.59;4944998;28;20053;-58
2021/12/17 17:50:10;;;;;;;0.75;0.65;;;;;;;8.78;100.00;102353.78;4936743;28;20054;-58
2021/12/17 17:53:13;;;;;;;1.70;1.05;;;;;;;8.84;100.00;102357.72;4933780;29;20102;-58
2021/12/17 17:56:16;;;;;;;4.05;1.63;;;;;;;8.85;100.00;102360.13;4937873;28;20046;-58
2021/12/17 17:59:19;;;;;;;5.22;1.50;;;;;;;8.87;100.00;102357.72;4938641;28;20073;-58
2021/12/17 18:02:22;;;;;;;18.50;1.33;;;;;;;8.85;100.00;102354.56;4934496;29;20126;-55
2021/12/17 18:05:25;;;;;;;4.30;0.75;;;;;;;8.85;100.00;102354.56;4933393;29;20059;-55
2021/12/17 18:08:29;;;;;;;1.98;1.80;;;;;;;8.78;100.00;102354.56;4933312;29;20147;-54
2021/12/17 18:11:32;;;;;;;5.53;1.98;;;;;;;8.78;100.00;102351.81;4934378;29;20154;-55
2021/12/17 18:14:36;;;;;;;12.38;1.60;;;;;;;8.69;100.00;102340.31;4934030;29;20051;-55
2021/12/17 18:17:39;;;;;;;2.88;1.10;;;;;;;8.64;100.00;102349.06;4947137;28;20527;-54
2021/12/17 20:21:10;;;;;;;13.73;2.25;;;;;;;8.44;100.00;102364.59;4993265;23;20086;-80
2021/12/17 20:24:35;;;;;;;2.15;0.65;;;;;;;8.53;100.00;102367.75;4894752;29;20051;-80
2021/12/17 20:27:48;;;;;;;2.90;0.88;;;;;;;8.57;100.00;102368.53;4899027;29;20059;-81
2021/12/17 20:30:52;;;;;;;9.30;2.03;;;;;;;8.59;100.00;102371.69;4877476;29;20047;-80
2021/12/17 20:33:55;;;;;;;1.45;0.50;;;;;;;8.57;100.00;102374.09;4893478;29;20055;-80
2021/12/17 20:36:58;;;;;;;2.53;1.13;;;;;;;8.60;100.00;102364.94;4894142;29;20067;-79
2021/12/17 20:40:04;;;;;;;11.40;2.63;;;;;;;8.60;100.00;102372.50;4893548;29;20057;-79
2021/12/17 20:43:14;;;;;;;1.85;1.02;;;;;;;8.60;100.00;102372.50;4890585;29;20142;-79
2021/12/17 20:46:18;;;;;;;5.53;1.65;;;;;;;8.61;100.00;102368.53;4893517;29;20075;-80
2021/12/17 20:49:22;;;;;;;7.95;1.77;;;;;;;8.55;100.00;102370.13;4893289;29;20455;-80
2021/12/17 20:52:25;;;;;;;10.63;1.13;;;;;;;8.40;100.00;102364.59;4893564;29;20103;-80
2021/12/17 20:55:32;;;;;;;4.32;1.10;;;;;;;8.35;100.00;102367.78;4881626;29;20120;-80
2021/12/17 20:58:37;;;;;;;2.63;1.42;;;;;;;8.31;100.00;102374.53;4896887;29;20143;-82
2021/12/17 21:01:46;;;;;;;5.57;0.40;;;;;;;8.28;100.00;102376.13;4896844;29;20112;-81
2021/12/17 21:04:49;;;;;;;1.70;1.13;;;;;;;8.31;100.00;102375.34;4896903;29;20040;-81
2021/12/17 21:07:54;;;;;;;12.65;1.55;;;;;;;8.33;100.00;102391.59;4896216;29;20051;-81
2021/12/17 21:10:57;;;;;;;5.55;1.58;;;;;;;8.29;100.00;102388.03;4896797;29;20047;-80
2021/12/17 21:14:11;;;;;;;2.63;1.85;;;;;;;8.22;100.00;102393.53;4896865;29;20040;-81
2021/12/17 21:17:14;;;;;;;3.50;1.17;;;;;;;8.12;100.00;102397.13;4896453;29;20132;-81
2021/12/17 21:20:22;;;;;;;2.45;1.35;;;;;;;8.07;100.00;102397.50;4902828;29;20123;-86
2021/12/17 21:23:25;;;;;;;7.88;1.00;;;;;;;8.00;100.00;102389.19;4910714;29;20108;-85
2021/12/17 21:26:30;;;;;;;3.00;1.35;;;;;;;7.97;100.00;102384.44;4909844;29;20533;-86
2021/12/17 21:29:33;;;;;;;2.53;0.80;;;;;;;7.97;100.00;102395.53;4899090;29;20054;-86
2021/12/17 21:32:37;;;;;;;5.45;1.15;;;;;;;7.94;100.00;102385.22;4898768;29;20055;-82
2021/12/17 21:35:42;;;;;;;2.05;1.20;;;;;;;7.91;100.00;102383.22;4899676;29;20043;-84
2021/12/17 21:38:45;;;;;;;1.92;0.75;;;;;;;7.94;100.00;102385.22;4891419;29;20055;-88
2021/12/17 21:41:48;;;;;;;1.65;0.60;;;;;;;8.04;100.00;102396.31;4897542;29;20052;-84
2021/12/17 21:44:51;;;;;;;0.68;0.52;;;;;;;8.05;100.00;102386.03;4896611;29;20067;-84
2021/12/17 21:47:55;;;;;;;1.65;1.15;;;;;;;8.06;100.00;102382.03;4899028;29;20048;-86
2021/12/17 21:50:58;;;;;;;9.48;0.63;;;;;;;8.07;100.00;102390.00;4898935;29;20051;-84
2021/12/17 21:54:01;;;;;;;1.13;1.02;;;;;;;8.10;100.00;102388.41;4884581;29;20055;-85
2021/12/17 21:57:04;;;;;;;3.47;1.00;;;;;;;8.07;100.00;102383.63;4898567;29;20128;-86
2021/12/17 22:00:10;;;;;;;2.30;1.08;;;;;;;7.96;100.00;102385.63;4898363;29;20132;-89
2021/12/17 22:03:14;;;;;;;6.18;0.95;;;;;;;7.99;100.00;102382.06;4898746;29;20055;-89
2021/12/17 22:06:19;;;;;;;3.20;1.63;;;;;;;8.05;100.00;102374.91;4897180;29;20091;-85
2021/12/17 22:09:22;;;;;;;15.45;1.98;;;;;;;8.01;100.00;102374.13;4898781;29;20112;-86
2021/12/17 22:12:28;;;;;;;2.47;1.52;;;;;;;7.94;100.00;102368.56;4887716;29;20051;-86
2021/12/17 22:15:33;;;;;;;1.38;1.27;;;;;;;7.95;100.00;102370.19;4898416;29;20071;-86
2021/12/17 22:18:44;;;;;;;0.32;0.32;;;;;;;7.82;100.00;102372.53;4887114;29;20512;-86
2021/12/17 22:21:56;;;;;;;11.55;3.20;;;;;;;7.84;100.00;102372.16;4897609;29;20047;-87
2021/12/17 22:24:59;;;;;;;15.68;1.48;;;;;;;7.82;100.00;102371.75;4897958;29;20103;-86
2021/12/17 22:28:03;;;;;;;3.83;1.00;;;;;;;7.86;100.00;102367.78;4898750;29;20105;-86
2021/12/17 22:31:06;;;;;;;12.25;1.70;;;;;;;7.95;100.00;102365.41;4898683;29;20095;-87
2021/12/17 22:34:08;;;;;;;8.90;1.30;;;;;;;8.14;100.00;102367.00;4882862;29;20079;-86
2021/12/17 22:37:12;;;;;;;2.20;0.70;;;;;;;8.21;100.00;102372.50;4889447;29;20124;-86
2021/12/17 22:40:23;;;;;;;1.48;0.40;;;;;;;8.29;100.00;102363.03;4884021;29;20097;-86
2021/12/17 22:43:26;;;;;;;2.20;1.88;;;;;;;8.29;100.00;102358.25;4898512;29;20051;-85
2021/12/17 22:46:29;;;;;;;4.22;1.88;;;;;;;8.30;100.00;102368.19;4884893;29;20095;-86
2021/12/17 22:49:32;;;;;;;0.75;0.22;;;;;;;8.38;100.00;102355.09;4908497;29;20422;-86
